Hamburg, Michigan
Current Conditions -  °F | °C
As of 1:35 AM on Tuesday 21 Oct 2014 (Local Time) from KOZW Reporting Station
Overcast Overcast  
Wind Chill: 44°   Ceiling: 2200
Heat Index: 47°   Visibility: 10mi
Dew Point: 43°   Wind: 7mph
Humidity: 85%   Direction: 320°NW
Pressure: 29.89"   Gusts: NA
Location:  42.45°N, 83.8°W
Report Text: KOZW 210535Z AUTO 32006KT 10SM BKN022 OVC055 09/06 A2989 RMK AO2 T00850061
Loading
Personal Weather Stations






























Interactive Weather Map
Tropical Storm Tracking
New forecast layout! Learn more

10-Day Weather Forecast

Advertisements
Track Severe Weather on mobile